Time;durP1;ratioP1;P1;durP2;ratioP2;P2;SDS_P1;SDS_P2;PMS_P1;PMS_P2;Temp;Humidity;BMP_temperature;BMP_pressure;BME280_temperature;BME280_humidity;BME280_pressure;Samples;Min_cycle;Max_cycle;Signal;HPM_P1;HPM_P2
2022/09/20 00:01:21;;;;;;;9.25;1.92;;;10.20;99.90;;;;;;4997720;28;20041;-76
2022/09/20 00:03:50;;;;;;;9.02;1.63;;;10.10;99.90;;;;;;5016573;28;20080;-76
2022/09/20 00:06:21;;;;;;;10.95;1.95;;;10.00;99.90;;;;;;4996952;28;20073;-76
2022/09/20 00:08:47;;;;;;;8.65;1.80;;;10.00;99.90;;;;;;4996130;28;20042;-76
2022/09/20 00:11:19;;;;;;;11.43;1.80;;;10.00;99.90;;;;;;4997659;28;20397;-75
2022/09/20 00:13:48;;;;;;;10.05;1.90;;;10.00;99.90;;;;;;5013794;28;20512;-76
2022/09/20 00:16:17;;;;;;;8.35;1.70;;;10.00;99.90;;;;;;5000309;28;20131;-76
2022/09/20 00:18:43;;;;;;;8.85;1.85;;;9.90;99.90;;;;;;5024851;28;20041;-76
2022/09/20 00:21:16;;;;;;;10.23;1.90;;;9.90;99.90;;;;;;5019067;28;20056;-76
2022/09/20 00:23:42;;;;;;;7.00;1.70;;;9.90;99.90;;;;;;5032488;28;20068;-76
2022/09/20 00:26:08;;;;;;;8.45;1.90;;;9.90;99.90;;;;;;5019703;28;20085;-76
2022/09/20 00:28:33;;;;;;;7.57;1.67;;;9.90;99.90;;;;;;4989097;28;20091;-75
2022/09/20 00:30:59;;;;;;;8.63;1.83;;;9.80;99.90;;;;;;5021042;28;20041;-76
2022/09/20 00:35:06;;;;;;;7.78;1.67;;;9.80;99.90;;;;;;5016018;28;20041;-75
2022/09/20 00:36:14;;;;;;;9.15;1.90;;;9.80;99.90;;;;;;5027150;28;20570;-76
2022/09/20 00:38:40;;;;;;;11.93;1.83;;;9.70;99.90;;;;;;5027447;28;20378;-76
2022/09/20 00:41:07;;;;;;;13.48;2.10;;;9.70;99.90;;;;;;5016432;28;20516;-75
2022/09/20 00:43:51;;;;;;;9.07;1.80;;;9.60;99.90;;;;;;5028836;28;20048;-75
2022/09/20 00:46:35;;;;;;;8.73;1.63;;;9.50;99.90;;;;;;5032908;28;20044;-76
2022/09/20 00:49:24;;;;;;;7.43;1.60;;;9.50;99.90;;;;;;5033170;28;20507;-75
2022/09/20 00:51:55;;;;;;;10.15;2.17;;;9.40;99.90;;;;;;5004123;28;20118;-76
2022/09/20 00:54:24;;;;;;;12.55;2.13;;;9.40;99.90;;;;;;5028229;28;20051;-75
2022/09/20 00:56:51;;;;;;;12.05;1.95;;;9.20;99.90;;;;;;5036589;28;20038;-75
2022/09/20 00:59:16;;;;;;;8.48;1.48;;;9.10;99.90;;;;;;5038690;28;20113;-76
2022/09/20 01:01:45;;;;;;;6.95;1.75;;;9.10;99.90;;;;;;5015702;28;20089;-75
2022/09/20 01:04:13;;;;;;;7.82;1.80;;;9.10;99.90;;;;;;5025049;28;20485;-75
2022/09/20 01:06:40;;;;;;;7.72;1.65;;;9.10;99.90;;;;;;5017318;28;20041;-75
2022/09/20 01:09:07;;;;;;;9.32;1.80;;;9.10;99.90;;;;;;5041486;28;20049;-75
2022/09/20 01:11:34;;;;;;;8.20;1.70;;;9.10;99.90;;;;;;5015374;28;20041;-76
2022/09/20 01:14:00;;;;;;;7.80;1.67;;;9.20;99.90;;;;;;5043505;28;20508;-75
2022/09/20 01:16:29;;;;;;;7.35;1.67;;;9.20;99.90;;;;;;4999303;28;20132;-76
2022/09/20 01:19:04;;;;;;;6.35;1.60;;;9.10;99.90;;;;;;5015642;28;20046;-75
2022/09/20 01:21:30;;;;;;;6.25;1.50;;;9.10;99.90;;;;;;5009552;28;20045;-76
2022/09/20 01:24:39;;;;;;;9.85;1.70;;;9.30;99.90;;;;;;5028708;28;20079;-76
2022/09/20 01:27:20;;;;;;;8.68;1.52;;;9.20;99.90;;;;;;5004066;28;20042;-76
2022/09/20 01:29:57;;;;;;;9.68;1.80;;;9.10;99.90;;;;;;5026792;28;20044;-75
2022/09/20 01:32:27;;;;;;;7.78;1.65;;;9.00;99.90;;;;;;5046200;28;20496;-75
2022/09/20 01:34:55;;;;;;;7.68;1.40;;;8.90;99.90;;;;;;5034015;28;20042;-75
2022/09/20 01:37:31;;;;;;;6.53;1.50;;;8.90;99.90;;;;;;5031000;28;20045;-75
2022/09/20 01:40:43;;;;;;;8.25;1.65;;;8.90;99.90;;;;;;5018337;28;20045;-75
2022/09/20 01:43:36;;;;;;;7.40;1.55;;;8.80;99.90;;;;;;4960149;28;20070;-76
2022/09/20 01:46:30;;;;;;;9.45;1.58;;;8.80;99.90;;;;;;5006789;28;20056;-76
2022/09/20 01:49:24;;;;;;;6.75;1.50;;;8.80;99.90;;;;;;5008762;28;20057;-75
2022/09/20 01:51:55;;;;;;;6.40;1.40;;;8.70;99.90;;;;;;5023260;28;20511;-75
2022/09/20 01:54:33;;;;;;;7.72;1.38;;;8.70;99.90;;;;;;5015026;28;20037;-75
2022/09/20 01:57:21;;;;;;;9.40;1.73;;;8.60;99.90;;;;;;5014804;28;20099;-75
2022/09/20 01:59:55;;;;;;;9.45;1.75;;;8.60;99.90;;;;;;5004615;28;20091;-75
2022/09/20 02:02:58;;;;;;;8.02;1.33;;;8.60;99.90;;;;;;5047966;28;20044;-75
2022/09/20 02:05:42;;;;;;;10.90;1.70;;;8.60;99.90;;;;;;5005767;28;20055;-76
2022/09/20 02:08:28;;;;;;;7.72;1.67;;;8.60;99.90;;;;;;5031540;28;20048;-75
2022/09/20 02:11:18;;;;;;;10.27;2.10;;;8.50;99.90;;;;;;5008911;28;20056;-76
2022/09/20 02:13:55;;;;;;;9.48;1.60;;;8.40;99.90;;;;;;5020549;28;20041;-75
2022/09/20 02:16:31;;;;;;;7.80;1.70;;;8.40;99.90;;;;;;5014232;28;20057;-76
2022/09/20 02:19:02;;;;;;;8.70;1.85;;;8.50;99.90;;;;;;5014736;28;20100;-75
2022/09/20 02:21:34;;;;;;;9.60;2.00;;;8.50;99.90;;;;;;4998353;28;20539;-76
2022/09/20 02:24:38;;;;;;;8.93;1.58;;;8.50;99.90;;;;;;5041279;28;20128;-76
2022/09/20 02:27:33;;;;;;;10.85;1.77;;;8.40;99.90;;;;;;5021333;28;20060;-75
2022/09/20 02:30:19;;;;;;;9.77;1.60;;;8.40;99.90;;;;;;5028748;28;20493;-75
2022/09/20 02:33:12;;;;;;;8.75;1.60;;;8.40;99.90;;;;;;5027825;28;20052;-75
2022/09/20 02:35:49;;;;;;;7.88;1.42;;;8.40;99.90;;;;;;5018777;28;20547;-76
2022/09/20 02:38:46;;;;;;;8.07;1.60;;;8.40;99.90;;;;;;5023491;28;20521;-76
2022/09/20 02:41:26;;;;;;;8.40;1.60;;;8.40;99.90;;;;;;5027386;28;20048;-75
2022/09/20 02:43:59;;;;;;;7.20;1.40;;;8.40;99.90;;;;;;5017342;28;20041;-75
2022/09/20 02:46:32;;;;;;;8.20;1.70;;;8.30;99.90;;;;;;5005267;28;20538;-75
2022/09/20 02:49:40;;;;;;;8.50;1.80;;;8.40;99.90;;;;;;5026368;28;20447;-75
2022/09/20 02:52:12;;;;;;;8.52;1.60;;;8.40;99.90;;;;;;5013526;28;20131;-75
2022/09/20 02:55:00;;;;;;;9.13;1.92;;;8.40;99.90;;;;;;5017710;28;20120;-75
2022/09/20 02:57:42;;;;;;;7.97;1.90;;;8.30;99.90;;;;;;5001601;28;20037;-75
2022/09/20 03:00:22;;;;;;;9.57;1.73;;;8.30;99.90;;;;;;5018504;28;20508;-75
2022/09/20 03:03:07;;;;;;;8.50;1.67;;;8.30;99.90;;;;;;5017812;28;20091;-75
2022/09/20 03:06:17;;;;;;;9.77;1.55;;;8.30;99.90;;;;;;5001901;28;20108;-75
2022/09/20 03:08:58;;;;;;;7.50;1.50;;;8.30;99.90;;;;;;5004376;28;20054;-75
2022/09/20 03:11:46;;;;;;;8.90;1.98;;;8.30;99.90;;;;;;5018943;28;20045;-75
2022/09/20 03:14:54;;;;;;;9.32;1.70;;;8.20;99.90;;;;;;5001810;28;20041;-75
2022/09/20 03:17:57;;;;;;;8.90;1.58;;;8.40;99.90;;;;;;5007031;28;20065;-75
2022/09/20 03:20:52;;;;;;;12.88;2.00;;;8.20;99.90;;;;;;5007439;28;20548;-75
2022/09/20 03:23:55;;;;;;;10.40;1.70;;;8.20;99.90;;;;;;5016765;28;20392;-75
2022/09/20 03:26:51;;;;;;;7.55;1.73;;;8.10;99.90;;;;;;5017584;28;20095;-75
2022/09/20 03:29:50;;;;;;;6.60;1.40;;;8.10;99.90;;;;;;5017940;28;20053;-75
2022/09/20 03:32:33;;;;;;;7.28;1.48;;;8.10;99.90;;;;;;5010698;28;20041;-75
2022/09/20 03:35:40;;;;;;;8.45;1.85;;;8.20;99.90;;;;;;5017436;28;20041;-75
2022/09/20 03:38:30;;;;;;;7.90;1.70;;;8.10;99.90;;;;;;5025947;28;20516;-76
2022/09/20 03:41:17;;;;;;;11.20;1.80;;;8.20;99.90;;;;;;5007313;28;20059;-75
2022/09/20 03:43:55;;;;;;;9.45;1.58;;;8.20;99.90;;;;;;5036347;28;20513;-76
2022/09/20 03:46:31;;;;;;;8.10;1.75;;;8.20;99.90;;;;;;5042394;28;20489;-75
2022/09/20 03:49:22;;;;;;;6.88;1.60;;;8.10;99.90;;;;;;5001640;28;20038;-75
2022/09/20 03:52:13;;;;;;;7.10;1.50;;;8.20;99.90;;;;;;5032974;28;20042;-75
2022/09/20 03:54:56;;;;;;;10.30;1.95;;;8.10;99.90;;;;;;5020016;28;20041;-76
2022/09/20 03:57:24;;;;;;;7.70;1.70;;;8.20;99.90;;;;;;5022229;28;20053;-75
2022/09/20 04:00:09;;;;;;;8.25;1.60;;;8.10;99.90;;;;;;5017613;28;20566;-75
2022/09/20 04:02:40;;;;;;;7.65;1.60;;;8.10;99.90;;;;;;5016830;28;20037;-75
2022/09/20 04:05:21;;;;;;;9.43;1.60;;;8.10;99.90;;;;;;5017016;28;20041;-75
2022/09/20 04:08:11;;;;;;;6.78;1.60;;;8.00;99.90;;;;;;5017179;28;20041;-75
2022/09/20 04:11:10;;;;;;;7.70;1.90;;;8.00;99.90;;;;;;5025690;28;20124;-75
2022/09/20 04:13:39;;;;;;;9.38;1.83;;;8.10;99.90;;;;;;5005127;28;20033;-75
2022/09/20 04:16:36;;;;;;;9.07;1.80;;;8.00;99.90;;;;;;5028714;28;20037;-75
2022/09/20 04:19:21;;;;;;;8.02;1.80;;;8.10;99.90;;;;;;5027559;28;20123;-75
2022/09/20 04:21:56;;;;;;;6.90;1.65;;;8.10;99.90;;;;;;5016000;28;20069;-75
2022/09/20 04:24:52;;;;;;;6.20;1.40;;;8.00;99.90;;;;;;5027936;28;20072;-75
2022/09/20 04:27:35;;;;;;;7.70;1.58;;;8.00;99.90;;;;;;5010991;28;20041;-75
2022/09/20 04:30:04;;;;;;;;;;;8.00;99.90;;;;;;5031899;28;20037;-75
2022/09/20 04:32:50;;;;;;;9.20;1.55;;;8.00;99.90;;;;;;5034620;28;19983;-75
2022/09/20 04:38:34;;;;;;;9.23;1.63;;;8.00;99.90;;;;;;5031282;28;20046;-75
2022/09/20 04:41:10;;;;;;;8.80;1.80;;;8.00;99.90;;;;;;5016417;28;20073;-75
2022/09/20 04:44:00;;;;;;;8.25;1.75;;;8.00;99.90;;;;;;4999521;28;20056;-75
2022/09/20 04:46:53;;;;;;;5.32;1.40;;;8.00;99.90;;;;;;4996370;28;20053;-76
2022/09/20 04:49:38;;;;;;;9.05;1.60;;;8.00;99.90;;;;;;5015664;28;20041;-75
2022/09/20 04:52:42;;;;;;;7.55;1.67;;;8.10;99.90;;;;;;5035115;28;20049;-75
2022/09/20 04:55:38;;;;;;;8.90;2.22;;;8.10;99.90;;;;;;5015942;28;20059;-76
2022/09/20 04:58:35;;;;;;;8.95;2.42;;;8.10;99.90;;;;;;5015976;28;20132;-75
2022/09/20 05:01:15;;;;;;;8.77;1.90;;;8.10;99.90;;;;;;5011927;28;20504;-76
2022/09/20 05:04:11;;;;;;;9.13;2.10;;;8.10;99.90;;;;;;4999809;28;20540;-75
2022/09/20 05:07:15;;;;;;;9.15;2.30;;;8.20;99.90;;;;;;4985600;28;20041;-76
2022/09/20 05:10:00;;;;;;;9.82;2.70;;;8.20;99.90;;;;;;5010916;28;20083;-76
2022/09/20 05:12:43;;;;;;;9.13;2.20;;;8.20;99.90;;;;;;5022887;28;20045;-76
2022/09/20 05:15:36;;;;;;;9.50;2.35;;;8.30;99.90;;;;;;5015171;28;20037;-75
2022/09/20 05:18:09;;;;;;;10.27;2.38;;;8.30;99.90;;;;;;5015232;28;20424;-75
2022/09/20 05:21:00;;;;;;;9.02;2.58;;;8.30;99.90;;;;;;5005596;28;20045;-75
2022/09/20 05:23:28;;;;;;;7.65;2.30;;;8.30;99.90;;;;;;5012963;28;20528;-75
2022/09/20 05:26:07;;;;;;;11.38;2.50;;;8.30;99.90;;;;;;5024386;28;20041;-75
2022/09/20 05:28:57;;;;;;;10.32;2.60;;;8.30;99.90;;;;;;5015027;28;20045;-75
2022/09/20 05:31:39;;;;;;;10.77;2.58;;;8.40;99.90;;;;;;5015639;28;20484;-75
2022/09/20 05:34:30;;;;;;;12.40;2.40;;;8.40;99.90;;;;;;5034346;28;20040;-75
2022/09/20 05:37:17;;;;;;;9.55;2.50;;;8.50;99.90;;;;;;5022055;28;20496;-74
2022/09/20 05:39:57;;;;;;;9.30;2.50;;;8.60;99.90;;;;;;5008222;28;20041;-74
2022/09/20 05:42:43;;;;;;;8.65;2.40;;;8.60;99.90;;;;;;4998930;28;20041;-73
2022/09/20 05:45:16;;;;;;;8.57;2.30;;;8.70;99.90;;;;;;5006124;28;20397;-75
2022/09/20 05:48:06;;;;;;;9.85;2.60;;;8.80;99.90;;;;;;5015369;28;20053;-76
2022/09/20 05:51:01;;;;;;;10.70;2.70;;;8.80;99.90;;;;;;5009743;28;20042;-76
2022/09/20 05:53:49;;;;;;;9.00;2.30;;;8.90;99.90;;;;;;5008175;28;20049;-75
2022/09/20 05:56:33;;;;;;;8.63;2.10;;;8.90;99.90;;;;;;5009469;28;20045;-76
2022/09/20 05:59:33;;;;;;;9.18;2.15;;;9.00;99.90;;;;;;5012933;28;20112;-75
2022/09/20 06:02:07;;;;;;;9.50;2.40;;;9.10;99.90;;;;;;5013074;28;20041;-75
2022/09/20 06:04:51;;;;;;;10.30;2.35;;;9.20;99.90;;;;;;5005947;28;20533;-75
2022/09/20 06:07:44;;;;;;;9.13;2.20;;;9.30;99.90;;;;;;5021266;28;20592;-74
2022/09/20 06:10:19;;;;;;;7.60;2.17;;;9.40;99.90;;;;;;5010736;28;20095;-75
2022/09/20 06:13:14;;;;;;;9.30;2.33;;;9.40;99.90;;;;;;5012988;28;20049;-75
2022/09/20 06:15:57;;;;;;;7.32;2.20;;;9.60;99.90;;;;;;5019079;28;20076;-76
2022/09/20 06:18:46;;;;;;;11.23;2.50;;;9.70;99.90;;;;;;5012782;28;20037;-76
2022/09/20 06:21:33;;;;;;;8.00;2.50;;;9.80;99.90;;;;;;5015894;28;20045;-77
2022/09/20 06:24:01;;;;;;;7.65;2.42;;;10.20;99.90;;;;;;5014268;28;20426;-76
2022/09/20 06:26:36;;;;;;;9.63;2.30;;;10.70;99.90;;;;;;4997054;28;20095;-77
2022/09/20 06:29:09;;;;;;;7.18;1.80;;;11.20;99.90;;;;;;5004414;28;20471;-76
2022/09/20 06:31:35;;;;;;;9.48;2.00;;;11.60;99.90;;;;;;5033005;28;20559;-77
2022/09/20 06:34:12;;;;;;;9.35;1.58;;;12.40;99.90;;;;;;5005113;28;20038;-77
2022/09/20 06:42:16;;;;;;;7.78;1.40;;;12.90;99.90;;;;;;5029703;28;20090;-77
2022/09/20 06:44:42;;;;;;;8.25;1.67;;;12.80;99.90;;;;;;5001280;28;20045;-77
2022/09/20 06:47:12;;;;;;;7.13;1.30;;;12.60;99.90;;;;;;5015001;28;20052;-77
2022/09/20 06:49:41;;;;;;;8.63;1.60;;;12.50;99.90;;;;;;5018381;28;20041;-75
2022/09/20 06:52:12;;;;;;;6.97;1.50;;;12.40;99.90;;;;;;5012481;28;20067;-76
2022/09/20 06:54:44;;;;;;;7.40;1.50;;;12.30;99.90;;;;;;5009547;28;20129;-77
2022/09/20 06:57:17;;;;;;;8.52;1.65;;;12.10;99.90;;;;;;5014964;28;20076;-76
2022/09/20 06:59:42;;;;;;;9.77;1.67;;;11.90;99.90;;;;;;5018300;28;20081;-75
2022/09/20 07:02:09;;;;;;;8.93;1.83;;;11.80;99.90;;;;;;5014492;28;20065;-76
2022/09/20 07:04:36;;;;;;;5.93;1.40;;;11.70;99.90;;;;;;5004892;28;20037;-81
2022/09/20 07:07:02;;;;;;;8.15;1.40;;;11.70;99.90;;;;;;5016770;28;20037;-81
2022/09/20 07:09:28;;;;;;;9.80;1.85;;;11.70;99.90;;;;;;5021965;28;20037;-81
2022/09/20 07:11:57;;;;;;;7.10;1.50;;;11.70;99.90;;;;;;5020830;28;20132;-80
2022/09/20 07:14:25;;;;;;;8.88;1.60;;;11.60;99.90;;;;;;5017698;28;20623;-80
2022/09/20 07:16:54;;;;;;;12.25;1.77;;;11.60;99.90;;;;;;5033926;28;20524;-80
2022/09/20 07:19:22;;;;;;;9.98;1.60;;;11.60;99.90;;;;;;5041068;28;20041;-81
2022/09/20 07:21:48;;;;;;;9.38;1.80;;;11.50;99.90;;;;;;5000143;28;20041;-81
2022/09/20 07:24:14;;;;;;;6.68;1.52;;;11.50;99.90;;;;;;5006026;28;20041;-76
2022/09/20 07:26:53;;;;;;;8.70;2.00;;;11.60;99.90;;;;;;5016898;28;20037;-78
2022/09/20 07:29:18;;;;;;;9.88;1.90;;;11.70;99.90;;;;;;5017027;28;20044;-78
2022/09/20 07:31:44;;;;;;;7.40;1.80;;;11.80;99.90;;;;;;5005676;28;20389;-78
2022/09/20 07:34:10;;;;;;;8.65;1.98;;;11.90;99.90;;;;;;5010725;28;20037;-78
2022/09/20 07:36:36;;;;;;;7.55;1.95;;;12.00;99.90;;;;;;4989561;28;20045;-77
2022/09/20 07:39:02;;;;;;;8.05;1.80;;;12.10;99.90;;;;;;4996579;28;20077;-75
2022/09/20 07:41:30;;;;;;;7.88;1.80;;;12.10;99.90;;;;;;5015473;28;20072;-76
2022/09/20 07:44:19;;;;;;;7.47;2.00;;;12.10;99.90;;;;;;5010163;28;20481;-74
2022/09/20 07:46:44;;;;;;;7.35;1.80;;;12.20;99.90;;;;;;5014721;28;20120;-75
2022/09/20 07:49:10;;;;;;;10.07;1.63;;;12.40;99.90;;;;;;5015113;28;20049;-75
2022/09/20 07:51:35;;;;;;;8.52;1.63;;;12.50;99.90;;;;;;5015307;28;20060;-76
2022/09/20 07:54:01;;;;;;;7.95;1.50;;;12.60;99.90;;;;;;4998803;28;20045;-75
2022/09/20 07:56:27;;;;;;;8.73;1.55;;;12.70;99.90;;;;;;5033727;28;20037;-76
2022/09/20 07:58:52;;;;;;;6.43;1.42;;;12.90;99.90;;;;;;5017785;28;20841;-75
2022/09/20 08:01:21;;;;;;;7.55;1.40;;;13.00;99.90;;;;;;5012034;28;20073;-75
2022/09/20 08:03:47;;;;;;;7.68;1.45;;;13.20;99.90;;;;;;5015744;28;20080;-75
2022/09/20 08:06:17;;;;;;;9.13;1.58;;;13.20;99.90;;;;;;5016107;28;20109;-75
2022/09/20 08:08:43;;;;;;;7.15;1.67;;;13.30;99.90;;;;;;5014973;28;20111;-75
2022/09/20 08:11:23;;;;;;;7.88;1.52;;;13.40;99.90;;;;;;5015700;28;20041;-75
2022/09/20 08:13:52;;;;;;;7.35;1.40;;;13.60;99.90;;;;;;5032108;28;20160;-75
2022/09/20 08:16:19;;;;;;;6.47;1.25;;;13.70;99.90;;;;;;5015625;28;20148;-75
2022/09/20 08:18:46;;;;;;;8.30;1.23;;;13.80;99.90;;;;;;5016740;28;20038;-75
2022/09/20 08:21:12;;;;;;;6.15;1.15;;;13.90;99.90;;;;;;5014072;28;20033;-75
2022/09/20 08:23:40;;;;;;;5.30;1.15;;;14.00;99.90;;;;;;5009532;28;20041;-75
2022/09/20 08:26:12;;;;;;;5.72;1.20;;;14.00;99.90;;;;;;5015065;28;20049;-75
2022/09/20 08:28:39;;;;;;;4.80;1.10;;;14.00;99.90;;;;;;5034989;28;20037;-76
2022/09/20 08:31:10;;;;;;;6.10;1.27;;;14.00;99.90;;;;;;5023549;28;20056;-75
2022/09/20 08:33:37;;;;;;;6.63;1.13;;;14.00;99.90;;;;;;5016513;28;20521;-76
2022/09/20 08:36:08;;;;;;;4.70;1.08;;;14.10;99.90;;;;;;5009171;28;20181;-76
2022/09/20 08:38:35;;;;;;;5.63;1.10;;;14.10;99.90;;;;;;5028981;28;20095;-75
2022/09/20 08:41:06;;;;;;;6.80;1.20;;;14.20;99.90;;;;;;5018193;28;20048;-75
2022/09/20 08:43:39;;;;;;;5.23;1.10;;;14.20;99.90;;;;;;5014549;28;20078;-76
2022/09/20 08:46:12;;;;;;;5.03;1.17;;;14.30;99.90;;;;;;5005475;28;20188;-76
2022/09/20 08:48:38;;;;;;;5.13;0.88;;;14.30;99.90;;;;;;5009179;28;20052;-76
2022/09/20 08:51:05;;;;;;;5.07;0.90;;;14.30;99.90;;;;;;4995874;28;20041;-75
2022/09/20 08:53:32;;;;;;;4.93;1.00;;;14.30;99.90;;;;;;5028795;28;20052;-76
2022/09/20 08:55:59;;;;;;;5.25;1.10;;;14.30;99.90;;;;;;5002324;28;20403;-75
2022/09/20 08:58:26;;;;;;;5.82;1.00;;;14.50;99.90;;;;;;5023933;28;20044;-76
2022/09/20 09:00:54;;;;;;;3.08;0.70;;;14.50;99.90;;;;;;5025023;28;20124;-75
2022/09/20 09:03:20;;;;;;;3.75;0.90;;;14.50;99.90;;;;;;5031731;28;20040;-75
2022/09/20 09:05:53;;;;;;;4.03;0.82;;;14.50;99.90;;;;;;5049234;28;20052;-75
2022/09/20 09:08:34;;;;;;;4.57;0.90;;;14.60;99.90;;;;;;5015245;28;20045;-75
2022/09/20 09:11:11;;;;;;;6.97;1.10;;;14.60;99.90;;;;;;5015941;28;20069;-76
2022/09/20 09:14:03;;;;;;;6.88;0.98;;;14.70;99.90;;;;;;5151996;27;20103;-75
2022/09/20 09:16:31;;;;;;;5.40;0.90;;;14.80;99.90;;;;;;5081759;28;20035;-73
2022/09/20 09:18:57;;;;;;;5.60;0.90;;;14.90;99.90;;;;;;5110136;28;20528;-76
2022/09/20 09:21:28;;;;;;;4.30;0.90;;;14.90;99.90;;;;;;5092402;28;20092;-75
2022/09/20 09:24:03;;;;;;;5.07;1.13;;;15.00;99.90;;;;;;5130877;28;20528;-75
2022/09/20 09:26:36;;;;;;;5.75;0.95;;;15.00;99.90;;;;;;5111230;28;20054;-76
2022/09/20 09:29:07;;;;;;;5.03;1.00;;;15.00;99.90;;;;;;5131823;28;20043;-75
2022/09/20 09:31:32;;;;;;;5.90;1.00;;;15.10;99.90;;;;;;5131012;28;20127;-75
2022/09/20 09:33:58;;;;;;;6.13;1.17;;;15.10;99.90;;;;;;5112470;28;20437;-76
2022/09/20 09:36:25;;;;;;;7.13;1.10;;;15.30;99.90;;;;;;5131008;28;20042;-76
2022/09/20 09:39:24;;;;;;;5.05;1.10;;;15.50;99.90;;;;;;5111503;28;20086;-75
2022/09/20 09:41:50;;;;;;;5.45;1.00;;;15.80;99.90;;;;;;5095398;28;20076;-77
2022/09/20 09:44:18;;;;;;;5.07;1.02;;;16.10;99.90;;;;;;5131191;28;20047;-75
2022/09/20 09:46:44;;;;;;;5.68;1.10;;;16.30;99.90;;;;;;5126481;28;20035;-75
2022/09/20 09:49:20;;;;;;;6.95;1.20;;;16.50;99.90;;;;;;5112671;28;20471;-76
2022/09/20 09:52:04;;;;;;;7.72;1.27;;;16.60;99.90;;;;;;5108212;28;20063;-76
2022/09/20 09:54:39;;;;;;;6.15;1.30;;;16.70;99.90;;;;;;5129599;28;20035;-76
2022/09/20 09:57:34;;;;;;;5.47;1.10;;;16.70;99.80;;;;;;5130377;28;20409;-76
2022/09/20 10:00:06;;;;;;;5.60;1.00;;;16.80;99.90;;;;;;5083811;28;20050;-75
2022/09/20 10:02:50;;;;;;;5.45;1.10;;;16.90;99.90;;;;;;5130421;28;20467;-74
2022/09/20 10:05:50;;;;;;;5.65;1.27;;;16.90;99.90;;;;;;5120803;28;20039;-76
2022/09/20 10:08:27;;;;;;;5.50;1.10;;;16.90;99.90;;;;;;5114741;28;20475;-75
2022/09/20 10:10:53;;;;;;;5.28;1.10;;;16.80;99.90;;;;;;5108924;28;20525;-73
2022/09/20 10:13:29;;;;;;;6.35;1.13;;;16.70;99.90;;;;;;5109399;28;20047;-73
2022/09/20 10:16:27;;;;;;;7.13;1.13;;;16.40;99.90;;;;;;5062056;28;20146;-74
2022/09/20 10:20:00;;;;;;;4.82;1.10;;;16.20;99.90;;;;;;5058513;28;20055;-73
2022/09/20 10:22:27;;;;;;;;;;;16.10;99.90;;;;;;4997893;28;20042;-72
2022/09/20 10:25:25;;;;;;;6.20;1.30;;;16.20;99.90;;;;;;4994936;28;19977;-74
2022/09/20 10:28:20;;;;;;;5.20;1.00;;;16.20;99.90;;;;;;5031137;28;20134;-72
2022/09/20 10:30:55;;;;;;;5.25;0.98;;;16.40;99.90;;;;;;5078110;28;20048;-73
2022/09/20 10:33:31;;;;;;;5.22;1.10;;;16.40;99.90;;;;;;5095439;28;20043;-76
2022/09/20 10:36:14;;;;;;;6.40;1.30;;;16.30;99.90;;;;;;5095800;28;20043;-74
2022/09/20 10:39:07;;;;;;;7.35;1.30;;;16.10;99.90;;;;;;5076386;28;20472;-74
2022/09/20 10:44:40;;;;;;;6.07;1.17;;;15.60;99.90;;;;;;5077827;28;20044;-72
2022/09/20 10:47:21;;;;;;;8.38;1.30;;;15.50;99.90;;;;;;5056424;28;20102;-74
2022/09/20 10:50:03;;;;;;;6.80;1.40;;;15.20;99.90;;;;;;5065792;28;20475;-73
2022/09/20 10:53:00;;;;;;;6.18;1.10;;;15.10;99.90;;;;;;5094361;28;20380;-73
2022/09/20 10:55:39;;;;;;;6.40;0.90;;;15.00;99.90;;;;;;5074830;28;20499;-73
2022/09/20 10:58:36;;;;;;;5.75;1.10;;;14.90;99.90;;;;;;5063781;28;20092;-73
2022/09/20 11:01:39;;;;;;;6.40;1.02;;;14.90;99.90;;;;;;5094933;28;20427;-73
2022/09/20 11:04:11;;;;;;;7.57;1.40;;;14.90;99.90;;;;;;5095467;28;20086;-74
2022/09/20 11:06:58;;;;;;;4.40;1.10;;;14.90;99.90;;;;;;5075911;28;20040;-74
2022/09/20 11:09:30;;;;;;;7.07;1.15;;;15.00;99.90;;;;;;5094969;28;20048;-74
2022/09/20 11:12:11;;;;;;;6.88;1.10;;;15.00;99.90;;;;;;5076838;28;20055;-74
2022/09/20 11:14:49;;;;;;;6.32;1.10;;;15.10;99.90;;;;;;5076881;28;20399;-74
2022/09/20 11:17:25;;;;;;;7.57;1.15;;;15.10;99.90;;;;;;5094822;28;20059;-74
2022/09/20 11:20:01;;;;;;;6.38;1.13;;;15.20;99.90;;;;;;5076732;28;20074;-72
2022/09/20 11:22:39;;;;;;;5.93;0.88;;;15.50;99.90;;;;;;5075972;28;20422;-72
2022/09/20 11:25:08;;;;;;;6.25;1.17;;;15.90;99.90;;;;;;5090089;28;20125;-76
2022/09/20 11:27:42;;;;;;;6.50;1.17;;;16.20;99.90;;;;;;5067819;28;20044;-74
2022/09/20 11:30:17;;;;;;;6.90;1.33;;;16.20;99.90;;;;;;5094846;28;20040;-76
2022/09/20 11:32:56;;;;;;;4.82;1.17;;;16.10;99.90;;;;;;5060030;28;20043;-75
2022/09/20 11:35:31;;;;;;;5.75;1.08;;;16.00;99.90;;;;;;5093688;28;20169;-75
2022/09/20 11:38:03;;;;;;;5.05;1.10;;;15.90;99.90;;;;;;5059387;28;20055;-73
2022/09/20 11:40:39;;;;;;;5.63;1.20;;;16.00;99.90;;;;;;5076473;28;20040;-71
2022/09/20 11:43:08;;;;;;;7.65;1.25;;;16.10;99.90;;;;;;5076108;28;20076;-72
2022/09/20 11:45:37;;;;;;;5.72;1.10;;;16.20;99.90;;;;;;5049154;28;20047;-74
2022/09/20 11:48:11;;;;;;;6.50;1.30;;;16.40;99.90;;;;;;5076169;28;20048;-74
2022/09/20 11:50:55;;;;;;;4.50;1.00;;;16.50;98.30;;;;;;5094299;28;20094;-73
2022/09/20 11:53:45;;;;;;;5.43;1.20;;;16.30;98.60;;;;;;5074941;28;20086;-72
2022/09/20 11:56:19;;;;;;;5.70;1.20;;;16.30;99.90;;;;;;5094281;28;20068;-75
2022/09/20 11:58:56;;;;;;;5.53;1.17;;;16.50;98.70;;;;;;5094384;28;20054;-73
2022/09/20 12:01:36;;;;;;;5.78;1.10;;;16.60;99.50;;;;;;5059066;28;20052;-75
2022/09/20 12:04:14;;;;;;;4.28;1.00;;;16.60;99.90;;;;;;5094470;28;20448;-75
2022/09/20 12:06:41;;;;;;;5.35;1.00;;;16.60;99.90;;;;;;5074664;28;20052;-75
2022/09/20 12:09:24;;;;;;;7.15;1.17;;;16.70;99.90;;;;;;5059831;28;20083;-76
2022/09/20 12:11:51;;;;;;;8.02;1.30;;;16.70;97.00;;;;;;5081142;28;20035;-73
2022/09/20 12:14:24;;;;;;;5.45;1.13;;;16.60;97.50;;;;;;5059685;28;20090;-74
2022/09/20 12:16:51;;;;;;;4.85;1.05;;;16.60;96.40;;;;;;5062335;28;20118;-74
2022/09/20 12:19:20;;;;;;;4.10;0.93;;;16.40;95.90;;;;;;5076317;28;20097;-74
2022/09/20 12:21:57;;;;;;;5.65;1.15;;;16.40;95.70;;;;;;5080809;28;20062;-76
2022/09/20 12:24:25;;;;;;;7.85;1.13;;;16.50;95.20;;;;;;5046476;28;20123;-75
2022/09/20 12:26:55;;;;;;;7.85;1.40;;;16.60;96.30;;;;;;5092306;28;20024;-74
2022/09/20 12:29:23;;;;;;;6.35;1.20;;;16.60;95.70;;;;;;5056286;28;20048;-76
2022/09/20 12:31:56;;;;;;;7.22;1.20;;;16.70;95.50;;;;;;5091033;28;20036;-75
2022/09/20 12:34:24;;;;;;;6.53;1.17;;;16.70;94.60;;;;;;5076009;28;20127;-75
2022/09/20 12:36:53;;;;;;;5.43;1.30;;;16.70;94.50;;;;;;5074507;28;20387;-75
2022/09/20 12:39:26;;;;;;;7.60;1.35;;;16.80;95.70;;;;;;5093667;28;20414;-76
2022/09/20 12:42:03;;;;;;;9.63;1.30;;;16.90;93.50;;;;;;5072361;28;20508;-71
2022/09/20 12:44:47;;;;;;;6.00;1.10;;;16.90;93.90;;;;;;5083942;28;20035;-72
2022/09/20 12:47:16;;;;;;;5.03;1.20;;;16.90;94.20;;;;;;5092318;28;20487;-74
2022/09/20 12:52:55;;;;;;;5.38;1.15;;;17.00;94.00;;;;;;5073753;28;20105;-75
2022/09/20 12:55:32;;;;;;;5.43;1.00;;;16.80;93.80;;;;;;5093693;28;20054;-74
2022/09/20 12:58:16;;;;;;;6.78;1.33;;;16.70;94.00;;;;;;5092873;28;20075;-73
2022/09/20 13:00:58;;;;;;;6.15;1.20;;;16.60;94.70;;;;;;5093525;28;20076;-75
2022/09/20 13:03:35;;;;;;;8.98;1.30;;;16.50;94.50;;;;;;5093301;28;20417;-75
2022/09/20 13:06:07;;;;;;;6.45;1.40;;;16.40;94.80;;;;;;5075094;28;20483;-74
2022/09/20 13:09:03;;;;;;;6.00;1.40;;;16.40;93.70;;;;;;5074607;28;20445;-74
2022/09/20 13:11:53;;;;;;;7.80;1.60;;;16.30;92.90;;;;;;5074469;28;20040;-75
2022/09/20 13:14:22;;;;;;;7.20;1.40;;;16.20;94.00;;;;;;5093217;28;20067;-76
2022/09/20 13:17:16;;;;;;;8.35;1.40;;;16.10;94.40;;;;;;5074782;28;20043;-76
2022/09/20 13:19:45;;;;;;;7.72;1.20;;;16.10;93.80;;;;;;5092851;28;20048;-75
2022/09/20 13:22:13;;;;;;;6.28;1.17;;;16.20;94.30;;;;;;5074424;28;20375;-75
2022/09/20 13:24:43;;;;;;;8.82;1.45;;;16.20;94.30;;;;;;5072779;28;20493;-74
2022/09/20 13:27:34;;;;;;;7.35;1.33;;;16.30;93.50;;;;;;5092975;28;20031;-74
2022/09/20 13:30:21;;;;;;;8.55;1.45;;;16.30;92.10;;;;;;5093031;28;20134;-76
2022/09/20 13:32:49;;;;;;;8.40;1.35;;;16.20;93.00;;;;;;5092823;28;20102;-76
2022/09/20 13:35:20;;;;;;;7.97;1.30;;;16.20;93.00;;;;;;5057884;28;20051;-75
2022/09/20 13:37:51;;;;;;;5.22;1.10;;;16.20;92.80;;;;;;5074356;28;20058;-76
2022/09/20 13:40:22;;;;;;;7.15;1.50;;;16.30;93.90;;;;;;5078490;28;20048;-76
2022/09/20 13:42:50;;;;;;;4.80;1.05;;;16.40;93.60;;;;;;5092454;28;20040;-76
2022/09/20 13:45:17;;;;;;;5.70;1.10;;;16.60;93.40;;;;;;5071767;28;20058;-76
2022/09/20 13:47:48;;;;;;;6.93;1.17;;;16.80;92.70;;;;;;5054217;28;20040;-75
2022/09/20 13:50:17;;;;;;;5.82;1.25;;;16.90;92.90;;;;;;5075082;28;20048;-75
2022/09/20 13:52:45;;;;;;;6.68;1.23;;;17.00;92.90;;;;;;5073747;28;20042;-71
2022/09/20 13:55:30;;;;;;;7.28;1.25;;;16.90;91.20;;;;;;5067502;28;20441;-74
2022/09/20 13:58:01;;;;;;;6.53;1.25;;;16.70;91.20;;;;;;5074740;28;20097;-73
2022/09/20 14:00:28;;;;;;;9.15;1.40;;;16.50;91.90;;;;;;5096709;28;20032;-75